Time;durP1;ratioP1;P1;durP2;ratioP2;P2;SDS_P1;SDS_P2;PMS_P1;PMS_P2;Temp;Humidity;BMP_temperature;BMP_pressure;BME280_temperature;BME280_humidity;BME280_pressure;Samples;Min_cycle;Max_cycle;Signal;HPM_P1;HPM_P2
2021/06/18 00:01:10;;;;;;;9.67;8.37;;;23.30;99.90;;;;;;6137384;23;20235;-68
2021/06/18 00:03:35;;;;;;;9.90;8.80;;;23.10;99.90;;;;;;6127644;23;20246;-68
2021/06/18 00:06:02;;;;;;;9.50;8.70;;;23.10;99.90;;;;;;6137287;23;20623;-69
2021/06/18 00:08:27;;;;;;;11.30;8.90;;;23.10;99.90;;;;;;6102239;23;20315;-72
2021/06/18 00:10:53;;;;;;;9.93;9.00;;;23.30;99.90;;;;;;6137142;23;20521;-70
2021/06/18 00:13:18;;;;;;;10.20;9.23;;;23.30;99.90;;;;;;6137266;23;20163;-69
2021/06/18 00:15:44;;;;;;;10.67;9.20;;;23.30;99.90;;;;;;6137291;23;20158;-69
2021/06/18 00:18:10;;;;;;;12.30;9.67;;;23.40;99.90;;;;;;6136931;23;20159;-69
2021/06/18 00:20:35;;;;;;;9.40;8.53;;;23.70;1.00;;;;;;6137080;23;20155;-69
2021/06/18 00:23:01;;;;;;;10.13;9.30;;;23.80;1.00;;;;;;6127610;23;20186;-69
2021/06/18 00:25:27;;;;;;;9.37;8.40;;;24.00;1.00;;;;;;6137125;23;20588;-69
2021/06/18 00:27:54;;;;;;;10.47;9.37;;;24.10;99.90;;;;;;6137157;23;20151;-69
2021/06/18 00:30:20;;;;;;;10.20;9.13;;;24.20;1.00;;;;;;6137003;23;20206;-69
2021/06/18 00:32:45;;;;;;;10.00;9.00;;;24.20;84.30;;;;;;6127281;23;20838;-69
2021/06/18 00:35:12;;;;;;;12.37;11.27;;;23.90;99.90;;;;;;6127492;23;20395;-70
2021/06/18 00:37:37;;;;;;;11.70;10.07;;;23.80;1.00;;;;;;6137078;23;20166;-70
2021/06/18 00:40:07;;;;;;;12.10;9.53;;;23.60;1.00;;;;;;6137091;23;20428;-70
2021/06/18 00:42:33;;;;;;;11.53;10.40;;;23.40;99.90;;;;;;6137252;23;20179;-70
2021/06/18 00:44:58;;;;;;;10.87;9.77;;;23.20;99.90;;;;;;6137116;23;20452;-69
2021/06/18 00:47:25;;;;;;;11.93;10.83;;;23.10;99.90;;;;;;6150577;23;20707;-69
2021/06/18 00:49:52;;;;;;;12.23;10.93;;;23.00;99.90;;;;;;6136730;23;20691;-69
2021/06/18 00:52:18;;;;;;;13.60;11.90;;;23.00;99.90;;;;;;6136783;23;20394;-69
2021/06/18 00:54:46;;;;;;;12.87;10.73;;;23.20;99.90;;;;;;6136753;23;20554;-69
2021/06/18 00:57:12;;;;;;;12.00;10.90;;;23.30;99.90;;;;;;6136632;23;20399;-69
2021/06/18 00:59:38;;;;;;;10.97;10.07;;;23.40;99.90;;;;;;6136673;23;20445;-69
2021/06/18 01:02:03;;;;;;;11.23;10.23;;;23.10;99.90;;;;;;6136733;23;20481;-69
2021/06/18 01:04:31;;;;;;;11.13;9.93;;;22.90;1.00;;;;;;6136543;23;20478;-70
2021/06/18 01:07:21;;;;;;;11.50;10.40;;;22.90;1.00;;;;;;6136862;23;20166;-70
2021/06/18 01:10:14;;;;;;;12.30;11.20;;;22.70;1.00;;;;;;6136368;23;20386;-70
2021/06/18 01:12:51;;;;;;;11.03;10.03;;;22.90;1.00;;;;;;6136737;23;20379;-70
2021/06/18 01:15:25;;;;;;;11.13;10.13;;;23.10;1.00;;;;;;6150260;23;20386;-69
2021/06/18 01:18:01;;;;;;;13.50;10.63;;;23.20;99.90;;;;;;6136712;23;20390;-69
2021/06/18 01:20:48;;;;;;;12.37;11.27;;;23.30;99.90;;;;;;6136673;23;20389;-69
2021/06/18 01:23:35;;;;;;;12.40;11.20;;;23.30;99.90;;;;;;6136669;23;20433;-69
2021/06/18 01:26:27;;;;;;;12.67;11.47;;;23.50;99.90;;;;;;6138192;23;20383;-69
2021/06/18 01:28:58;;;;;;;11.33;10.30;;;23.50;99.90;;;;;;6138629;23;20370;-69
2021/06/18 01:31:27;;;;;;;12.13;10.53;;;23.40;99.90;;;;;;6138630;23;20473;-69
2021/06/18 01:34:04;;;;;;;12.37;10.93;;;23.50;99.90;;;;;;6138810;23;20387;-69
2021/06/18 01:36:31;;;;;;;12.03;10.83;;;23.50;99.90;;;;;;6128820;23;20786;-69
2021/06/18 01:38:59;;;;;;;12.97;11.00;;;23.30;99.90;;;;;;6138592;23;20387;-69
2021/06/18 01:41:29;;;;;;;13.47;12.03;;;23.30;99.90;;;;;;6138726;23;20426;-69
2021/06/18 01:43:58;;;;;;;13.00;11.80;;;23.30;99.90;;;;;;6138796;23;20387;-69
2021/06/18 01:46:28;;;;;;;12.70;11.37;;;23.00;1.00;;;;;;6152276;23;20990;-69
2021/06/18 01:48:58;;;;;;;14.43;11.20;;;23.20;1.00;;;;;;6138598;23;20413;-69
2021/06/18 01:51:27;;;;;;;12.33;11.10;;;23.30;99.90;;;;;;6129353;23;20718;-68
2021/06/18 01:53:54;;;;;;;14.97;13.40;;;23.20;99.90;;;;;;6138962;23;20395;-69
2021/06/18 01:56:20;;;;;;;12.03;10.73;;;23.30;99.90;;;;;;6137784;23;20398;-68
2021/06/18 01:58:48;;;;;;;12.23;10.93;;;23.10;99.90;;;;;;6129226;23;20530;-68
2021/06/18 02:01:15;;;;;;;12.83;11.70;;;23.20;99.90;;;;;;6138604;23;20449;-69
2021/06/18 02:03:44;;;;;;;15.57;13.03;;;23.30;99.90;;;;;;6129355;23;20391;-68
2021/06/18 02:06:10;;;;;;;14.33;12.30;;;23.40;99.90;;;;;;6138514;23;20399;-68
2021/06/18 02:08:38;;;;;;;15.43;13.53;;;23.40;99.90;;;;;;6138598;23;20695;-71
2021/06/18 02:11:04;;;;;;;16.13;14.47;;;23.50;99.90;;;;;;6138316;23;20398;-71
2021/06/18 02:13:32;;;;;;;15.03;13.53;;;23.20;99.90;;;;;;6138544;23;20493;-71
2021/06/18 02:15:59;;;;;;;14.23;12.47;;;23.10;99.90;;;;;;6128763;23;20526;-71
2021/06/18 02:18:26;;;;;;;14.90;13.60;;;23.20;99.90;;;;;;6137922;23;20465;-71
2021/06/18 02:20:55;;;;;;;14.30;13.10;;;22.90;99.90;;;;;;6138315;23;20386;-71
2021/06/18 02:23:23;;;;;;;16.50;15.00;;;22.30;1.00;;;;;;6138087;23;20433;-71
2021/06/18 02:25:50;;;;;;;17.43;15.83;;;22.10;1.00;;;;;;6138123;23;20402;-71
2021/06/18 02:28:18;;;;;;;16.63;14.97;;;21.90;1.00;;;;;;6128381;23;20417;-71
2021/06/18 02:30:44;;;;;;;16.40;14.70;;;21.80;12.00;;;;;;6138074;23;20842;-71
2021/06/18 02:33:11;;;;;;;16.00;14.60;;;21.80;39.60;;;;;;6138344;23;20390;-70
2021/06/18 02:35:42;;;;;;;17.00;15.30;;;21.70;99.90;;;;;;6128461;23;20395;-70
2021/06/18 02:38:10;;;;;;;16.67;15.07;;;21.50;99.90;;;;;;6128354;23;20387;-68
2021/06/18 02:40:37;;;;;;;17.07;15.20;;;21.30;99.90;;;;;;6152065;23;20403;-69
2021/06/18 02:43:03;;;;;;;16.13;14.53;;;21.30;99.90;;;;;;6138143;23;20972;-69
2021/06/18 02:45:29;;;;;;;17.53;15.87;;;21.40;99.90;;;;;;6138017;23;20470;-68
2021/06/18 02:48:01;;;;;;;17.50;15.43;;;21.20;99.90;;;;;;6137944;23;20421;-68
2021/06/18 02:50:41;;;;;;;17.07;15.47;;;21.10;99.90;;;;;;6137958;23;20414;-69
2021/06/18 02:53:13;;;;;;;17.63;15.97;;;21.10;99.90;;;;;;6138135;23;20375;-69
2021/06/18 02:56:18;;;;;;;19.30;17.50;;;21.30;99.90;;;;;;6127146;23;20429;-69
2021/06/18 02:58:58;;;;;;;19.80;18.00;;;21.30;99.90;;;;;;6126105;23;20402;-69
2021/06/18 03:01:29;;;;;;;22.50;17.40;;;21.20;99.90;;;;;;6137881;23;20430;-69
2021/06/18 03:03:58;;;;;;;20.77;18.50;;;21.20;99.90;;;;;;6128656;23;20371;-69
2021/06/18 03:06:24;;;;;;;19.83;18.00;;;21.10;99.90;;;;;;6151729;23;20473;-69
2021/06/18 03:08:57;;;;;;;21.97;19.67;;;21.10;99.90;;;;;;6137817;23;20734;-69
2021/06/18 03:11:31;;;;;;;22.03;20.03;;;21.20;99.90;;;;;;6138155;23;20375;-69
2021/06/18 03:14:01;;;;;;;21.60;19.43;;;21.20;99.90;;;;;;6138053;23;20371;-69
2021/06/18 03:16:29;;;;;;;21.93;19.60;;;21.20;99.90;;;;;;6137991;23;20387;-69
2021/06/18 03:18:57;;;;;;;20.40;18.37;;;21.30;99.90;;;;;;6137599;23;20387;-69
2021/06/18 03:21:24;;;;;;;22.53;19.03;;;21.40;99.90;;;;;;6137844;23;20715;-69
2021/06/18 03:23:51;;;;;;;20.00;18.03;;;21.40;99.90;;;;;;6139123;23;20414;-70
2021/06/18 03:26:17;;;;;;;21.63;19.70;;;21.40;99.90;;;;;;6138038;23;20433;-69
2021/06/18 03:28:44;;;;;;;19.87;18.03;;;21.50;99.90;;;;;;6137440;23;20511;-69
2021/06/18 03:31:11;;;;;;;21.57;19.37;;;21.40;99.90;;;;;;6137792;23;20837;-69
2021/06/18 03:33:37;;;;;;;21.30;19.10;;;21.40;99.90;;;;;;6137458;23;20387;-70
2021/06/18 03:36:04;;;;;;;23.90;20.77;;;21.40;99.90;;;;;;6137485;23;20406;-70
2021/06/18 03:38:32;;;;;;;20.17;17.97;;;21.50;99.90;;;;;;6150715;23;20398;-70
2021/06/18 03:40:58;;;;;;;21.57;19.03;;;21.50;99.90;;;;;;6137208;23;20437;-70
2021/06/18 03:43:24;;;;;;;21.80;19.60;;;21.70;99.90;;;;;;6137110;23;20431;-71
2021/06/18 03:45:55;;;;;;;20.97;18.90;;;21.70;99.90;;;;;;6126418;23;20401;-71
2021/06/18 03:48:28;;;;;;;23.73;21.37;;;21.80;99.90;;;;;;6137333;23;20836;-70
2021/06/18 03:50:54;;;;;;;19.53;17.73;;;21.80;99.90;;;;;;6137735;23;20852;-70
2021/06/18 03:53:20;;;;;;;20.30;18.30;;;22.00;99.90;;;;;;6137342;23;20387;-72
2021/06/18 03:55:47;;;;;;;23.43;20.97;;;22.60;99.90;;;;;;6137512;23;20453;-68
2021/06/18 03:58:16;;;;;;;21.43;19.47;;;23.00;36.50;;;;;;6137467;23;20428;-68
2021/06/18 04:00:43;;;;;;;23.33;21.10;;;23.30;1.00;;;;;;6126487;23;20391;-70
2021/06/18 04:03:10;;;;;;;21.47;19.00;;;24.00;1.00;;;;;;6137149;23;20430;-70
2021/06/18 04:05:39;;;;;;;19.70;17.67;;;25.10;99.90;;;;;;6137225;23;20485;-72
2021/06/18 04:08:06;;;;;;;20.30;18.00;;;26.10;99.90;;;;;;6136969;23;20394;-71
2021/06/18 04:10:33;;;;;;;20.23;18.33;;;27.20;1.00;;;;;;6137719;23;20399;-67
2021/06/18 04:12:59;;;;;;;19.10;17.20;;;27.20;1.00;;;;;;6137783;23;20394;-69
2021/06/18 04:15:25;;;;;;;18.57;16.67;;;27.90;99.90;;;;;;6137180;23;20387;-70
2021/06/18 04:17:52;;;;;;;18.80;15.97;;;28.30;99.90;;;;;;6137144;23;20425;-70
2021/06/18 04:20:23;;;;;;;17.77;15.87;;;28.50;61.90;;;;;;6150607;23;20479;-70
2021/06/18 04:22:50;;;;;;;18.33;16.70;;;28.10;99.90;;;;;;6127741;23;20508;-70
2021/06/18 04:25:16;;;;;;;17.90;16.10;;;27.30;1.00;;;;;;6136950;23;20410;-70
2021/06/18 04:27:42;;;;;;;16.87;15.27;;;27.90;1.00;;;;;;6150467;23;20399;-70
2021/06/18 04:30:10;;;;;;;17.00;15.50;;;29.30;1.00;;;;;;6136810;23;20386;-70
2021/06/18 04:32:36;;;;;;;18.27;16.00;;;29.80;99.90;;;;;;6136986;23;20155;-70
2021/06/18 04:35:06;;;;;;;16.20;14.80;;;29.50;99.90;;;;;;6137280;23;20702;-69
2021/06/18 04:37:33;;;;;;;16.67;14.93;;;30.40;99.90;;;;;;6137004;23;20155;-69
2021/06/18 04:39:59;;;;;;;17.60;15.23;;;31.60;1.00;;;;;;6150458;23;20497;-69
2021/06/18 04:42:24;;;;;;;14.87;13.60;;;32.50;1.00;;;;;;6136949;23;20434;-69
2021/06/18 04:44:50;;;;;;;16.57;14.50;;;33.40;1.00;;;;;;6136995;23;20179;-69
2021/06/18 04:47:16;;;;;;;15.63;14.13;;;33.70;1.00;;;;;;6136958;23;20582;-68
2021/06/18 04:49:41;;;;;;;15.33;14.00;;;33.70;1.00;;;;;;6136709;23;20159;-69
2021/06/18 04:52:07;;;;;;;20.70;15.13;;;33.80;1.00;;;;;;6137196;23;20151;-69
2021/06/18 04:54:33;;;;;;;20.00;16.03;;;32.20;1.00;;;;;;6136858;23;20150;-70
2021/06/18 04:56:58;;;;;;;33.23;17.93;;;31.60;1.00;;;;;;6137194;23;20279;-71
2021/06/18 04:59:25;;;;;;;20.20;13.90;;;31.50;1.00;;;;;;6136734;23;20401;-71
2021/06/18 05:01:50;;;;;;;26.50;15.83;;;32.60;1.00;;;;;;6136539;23;20175;-71
2021/06/18 05:04:16;;;;;;;16.33;14.70;;;33.50;1.00;;;;;;6136883;23;20383;-71
2021/06/18 05:06:42;;;;;;;18.20;14.30;;;34.80;1.00;;;;;;6137313;23;20174;-70
2021/06/18 05:09:08;;;;;;;14.50;13.10;;;35.00;1.00;;;;;;6127175;23;20221;-70
2021/06/18 05:11:33;;;;;;;14.90;12.73;;;36.00;1.00;;;;;;6136815;23;20560;-69
2021/06/18 05:13:59;;;;;;;12.90;11.60;;;36.80;1.00;;;;;;6127402;23;20222;-70
2021/06/18 05:16:26;;;;;;;17.80;12.63;;;37.10;1.00;;;;;;6127076;23;20163;-70
2021/06/18 05:18:51;;;;;;;23.87;13.80;;;37.20;1.00;;;;;;6127098;23;20155;-70
2021/06/18 05:21:36;;;;;;;14.07;12.40;;;37.70;1.00;;;;;;6136888;23;20481;-70
2021/06/18 05:24:02;;;;;;;18.23;14.17;;;37.60;1.00;;;;;;6126540;23;20410;-70
2021/06/18 05:26:33;;;;;;;18.67;12.90;;;37.90;1.00;;;;;;6126723;23;20680;-70
2021/06/18 05:28:59;;;;;;;18.47;13.47;;;37.90;1.00;;;;;;6126784;23;20757;-70
2021/06/18 05:31:25;;;;;;;16.37;13.07;;;37.90;1.00;;;;;;6127132;23;20461;-70
2021/06/18 05:33:51;;;;;;;19.67;13.50;;;37.90;1.00;;;;;;6136555;23;20394;-72
2021/06/18 05:36:16;;;;;;;13.47;12.07;;;37.80;1.00;;;;;;6136543;23;20257;-71
2021/06/18 05:38:42;;;;;;;13.80;12.50;;;37.80;1.00;;;;;;6149761;23;20170;-71
2021/06/18 05:41:08;;;;;;;15.30;11.57;;;38.00;1.00;;;;;;6136314;23;20150;-71
2021/06/18 05:43:34;;;;;;;12.17;11.07;;;38.50;1.00;;;;;;6149993;23;20159;-72
2021/06/18 05:45:59;;;;;;;12.53;11.40;;;39.20;1.00;;;;;;6136537;23;20155;-72
2021/06/18 05:48:25;;;;;;;11.43;10.33;;;39.30;1.00;;;;;;6149796;23;20478;-72
2021/06/18 05:50:54;;;;;;;11.70;10.60;;;37.90;1.00;;;;;;6136358;23;20151;-71
2021/06/18 05:53:20;;;;;;;12.40;10.60;;;39.20;1.00;;;;;;6136341;23;20586;-71
2021/06/18 05:55:47;;;;;;;12.63;11.40;;;39.60;1.00;;;;;;6135082;23;20848;-70
2021/06/18 05:58:13;;;;;;;11.33;10.00;;;39.10;1.00;;;;;;6126613;23;20394;-70
2021/06/18 06:00:39;;;;;;;10.77;9.77;;;39.10;1.00;;;;;;6149354;23;20857;-70
2021/06/18 06:03:05;;;;;;;11.47;9.97;;;39.30;1.00;;;;;;6136238;23;20429;-70
2021/06/18 06:05:30;;;;;;;12.23;11.03;;;40.00;1.00;;;;;;6136170;23;20822;-70
2021/06/18 06:07:56;;;;;;;11.03;9.57;;;40.20;1.00;;;;;;6136160;23;20216;-70
2021/06/18 06:10:21;;;;;;;11.90;9.57;;;40.30;1.00;;;;;;6149499;23;20159;-70
2021/06/18 06:12:47;;;;;;;11.17;10.03;;;40.50;1.00;;;;;;6128433;23;20197;-70
2021/06/18 06:15:13;;;;;;;12.40;10.40;;;40.70;1.00;;;;;;6137603;23;20499;-70
2021/06/18 06:17:39;;;;;;;12.47;10.00;;;40.20;1.00;;;;;;6138080;23;20571;-69
2021/06/18 06:20:06;;;;;;;12.50;10.73;;;39.80;1.00;;;;;;6128640;23;20182;-69
2021/06/18 06:22:32;;;;;;;13.97;10.80;;;39.60;1.00;;;;;;6151591;23;20437;-69
2021/06/18 06:24:59;;;;;;;14.90;10.40;;;40.20;1.00;;;;;;6136591;23;20421;-70
2021/06/18 06:27:25;;;;;;;10.27;9.13;;;40.30;1.00;;;;;;6137745;23;20864;-70
2021/06/18 06:29:50;;;;;;;15.37;10.43;;;39.90;1.00;;;;;;6137904;23;20386;-70
2021/06/18 06:32:16;;;;;;;10.23;9.27;;;40.10;1.00;;;;;;6138022;23;20578;-70
2021/06/18 06:34:42;;;;;;;12.47;10.83;;;39.60;1.00;;;;;;6137225;23;20645;-70
2021/06/18 06:37:08;;;;;;;10.47;9.00;;;39.70;1.00;;;;;;6137719;23;20165;-70
2021/06/18 06:39:33;;;;;;;11.87;9.60;;;39.80;1.00;;;;;;6135516;23;20192;-68
2021/06/18 06:42:01;;;;;;;11.83;10.63;;;39.60;1.00;;;;;;6137518;23;20175;-68
2021/06/18 06:44:27;;;;;;;11.20;10.20;;;39.10;1.00;;;;;;6150120;23;20613;-67
2021/06/18 06:46:52;;;;;;;12.70;9.43;;;39.40;1.00;;;;;;6137705;23;20395;-68
2021/06/18 06:49:18;;;;;;;11.47;10.33;;;38.40;1.00;;;;;;6126580;23;20405;-68
2021/06/18 06:51:44;;;;;;;10.67;9.17;;;38.80;1.00;;;;;;6150279;23;20229;-68
2021/06/18 06:54:09;;;;;;;10.83;9.20;;;39.70;1.00;;;;;;6126928;23;20485;-67
2021/06/18 06:56:36;;;;;;;10.70;9.70;;;39.40;1.00;;;;;;6137500;23;20306;-67
2021/06/18 06:59:02;;;;;;;9.50;8.70;;;39.80;1.00;;;;;;6137461;23;20154;-68
2021/06/18 07:01:29;;;;;;;9.23;8.30;;;40.90;1.00;;;;;;6137479;23;20477;-68
2021/06/18 07:03:55;;;;;;;9.90;9.00;;;40.70;1.00;;;;;;6126319;23;20577;-68
2021/06/18 07:06:21;;;;;;;9.93;8.93;;;39.10;1.00;;;;;;6137692;23;20479;-68
2021/06/18 07:08:47;;;;;;;11.63;10.53;;;38.70;1.00;;;;;;6137179;23;20405;-67
2021/06/18 07:11:13;;;;;;;10.27;9.20;;;39.50;1.00;;;;;;6137445;23;20391;-68
2021/06/18 07:13:38;;;;;;;9.67;8.87;;;40.20;1.00;;;;;;6137392;23;20150;-67
2021/06/18 07:16:04;;;;;;;9.33;8.40;;;40.30;1.00;;;;;;6127730;23;20571;-67
2021/06/18 07:18:32;;;;;;;9.67;8.63;;;41.00;1.00;;;;;;6126258;23;20155;-67
2021/06/18 07:20:57;;;;;;;10.97;9.23;;;40.70;1.00;;;;;;6137884;23;20589;-66
2021/06/18 07:23:23;;;;;;;9.47;8.57;;;39.10;1.00;;;;;;6125751;23;20430;-65
2021/06/18 07:25:49;;;;;;;9.37;8.47;;;38.60;1.00;;;;;;6137574;23;20590;-65
2021/06/18 07:28:14;;;;;;;11.23;9.30;;;38.40;1.00;;;;;;6136949;23;20165;-67
2021/06/18 07:30:49;;;;;;;9.60;8.70;;;38.50;1.00;;;;;;6137831;23;20155;-69
2021/06/18 07:33:25;;;;;;;9.43;8.57;;;39.40;1.00;;;;;;6151143;23;20189;-68
2021/06/18 07:35:50;;;;;;;9.63;8.80;;;38.70;1.00;;;;;;6137881;23;20441;-68
2021/06/18 07:38:16;;;;;;;12.80;8.73;;;37.40;1.00;;;;;;6137915;23;20391;-69
2021/06/18 07:40:42;;;;;;;9.17;8.47;;;36.60;1.00;;;;;;6151194;23;20165;-69
2021/06/18 07:43:07;;;;;;;8.97;8.30;;;35.60;1.00;;;;;;6137240;23;20609;-67
2021/06/18 07:45:33;;;;;;;9.60;8.70;;;33.90;1.00;;;;;;6137305;23;20477;-66
2021/06/18 07:47:58;;;;;;;9.63;8.73;;;33.00;1.00;;;;;;6137155;23;20155;-67
2021/06/18 07:50:24;;;;;;;9.40;8.53;;;32.30;1.00;;;;;;6125902;23;20464;-68
2021/06/18 07:52:51;;;;;;;8.73;7.90;;;32.10;1.00;;;;;;6137207;23;20163;-67
2021/06/18 07:55:21;;;;;;;9.70;8.77;;;31.90;1.00;;;;;;6127594;23;20693;-67
2021/06/18 07:57:47;;;;;;;10.00;9.07;;;31.70;1.00;;;;;;6137168;23;20382;-68
2021/06/18 08:00:13;;;;;;;9.03;8.33;;;31.90;1.00;;;;;;6137015;23;20391;-68
2021/06/18 08:02:39;;;;;;;10.43;9.43;;;32.20;1.00;;;;;;6127695;23;20187;-67
2021/06/18 08:05:05;;;;;;;9.53;8.33;;;32.10;1.00;;;;;;6137693;23;20410;-75
2021/06/18 08:07:31;;;;;;;10.33;9.50;;;32.10;1.00;;;;;;6138026;23;20382;-73
2021/06/18 08:09:56;;;;;;;10.00;9.10;;;31.90;1.00;;;;;;6131310;23;20386;-78
2021/06/18 08:12:22;;;;;;;9.60;8.80;;;31.70;1.00;;;;;;6154380;23;20529;-73
2021/06/18 08:14:49;;;;;;;10.60;9.70;;;31.20;1.00;;;;;;6137656;23;20154;-77
2021/06/18 08:17:14;;;;;;;9.63;8.73;;;31.60;1.00;;;;;;6151012;23;20487;-69
2021/06/18 08:19:40;;;;;;;11.30;8.90;;;31.80;1.00;;;;;;6136856;23;20774;-71
2021/06/18 08:22:05;;;;;;;9.40;8.60;;;31.90;1.00;;;;;;6136763;23;20483;-70
2021/06/18 08:24:35;;;;;;;9.83;9.03;;;32.20;1.00;;;;;;6136835;23;20195;-69
2021/06/18 08:27:01;;;;;;;11.33;10.20;;;32.20;1.00;;;;;;6127750;23;20449;-73
2021/06/18 08:29:27;;;;;;;10.80;9.10;;;32.20;1.00;;;;;;6125850;23;20897;-72
2021/06/18 08:31:52;;;;;;;15.97;10.70;;;32.30;1.00;;;;;;6150337;23;20163;-72
2021/06/18 08:34:18;;;;;;;16.10;10.50;;;32.50;1.00;;;;;;6136642;23;20390;-73
2021/06/18 08:36:44;;;;;;;10.83;8.33;;;32.90;1.00;;;;;;6136622;23;20171;-71
2021/06/18 08:39:10;;;;;;;9.83;8.93;;;33.00;1.00;;;;;;6149859;23;20171;-71
2021/06/18 08:41:36;;;;;;;10.07;9.13;;;33.00;1.00;;;;;;6127108;23;20236;-72
2021/06/18 08:44:04;;;;;;;9.03;8.23;;;33.40;1.00;;;;;;6136688;23;20382;-71
2021/06/18 08:46:29;;;;;;;14.50;8.93;;;33.40;1.00;;;;;;6136772;23;20448;-73
2021/06/18 08:48:55;;;;;;;14.43;10.10;;;33.60;1.00;;;;;;6136334;23;20386;-70
2021/06/18 08:51:21;;;;;;;12.27;9.83;;;33.50;1.00;;;;;;6136626;23;20151;-74
2021/06/18 08:53:47;;;;;;;12.87;11.60;;;33.20;1.00;;;;;;6136505;23;20140;-74
2021/06/18 08:56:13;;;;;;;11.30;10.07;;;33.00;1.00;;;;;;6150275;23;20905;-71
2021/06/18 08:58:39;;;;;;;12.03;10.90;;;32.50;1.00;;;;;;6136400;23;20410;-73
2021/06/18 09:01:05;;;;;;;11.00;10.00;;;31.60;1.00;;;;;;6126549;23;20442;-70
2021/06/18 09:03:47;;;;;;;11.63;10.63;;;31.80;1.00;;;;;;6126762;23;20437;-70
2021/06/18 09:06:45;;;;;;;11.17;10.17;;;31.60;1.00;;;;;;6136664;23;20143;-70
2021/06/18 09:09:18;;;;;;;12.50;10.80;;;31.90;1.00;;;;;;6071947;23;20399;-71
2021/06/18 09:11:52;;;;;;;10.70;9.70;;;31.40;1.00;;;;;;6127171;23;20394;-69
2021/06/18 09:14:23;;;;;;;12.03;10.93;;;31.50;1.00;;;;;;6127056;23;20477;-68
2021/06/18 09:17:20;;;;;;;11.80;10.80;;;31.40;1.00;;;;;;6149888;23;20470;-70
2021/06/18 09:19:54;;;;;;;12.30;11.07;;;31.60;1.00;;;;;;6127254;23;20386;-69
2021/06/18 09:22:39;;;;;;;11.97;10.80;;;31.80;1.00;;;;;;6136309;23;20497;-68
2021/06/18 09:25:13;;;;;;;11.83;10.70;;;31.30;1.00;;;;;;6136224;23;20402;-69
2021/06/18 09:27:39;;;;;;;11.90;11.00;;;31.40;1.00;;;;;;6136371;23;20386;-70
2021/06/18 09:30:31;;;;;;;12.23;11.03;;;31.70;1.00;;;;;;6136107;23;20856;-72
2021/06/18 09:33:17;;;;;;;10.97;10.03;;;31.30;1.00;;;;;;6136548;23;20370;-72
2021/06/18 09:36:05;;;;;;;12.10;11.00;;;31.10;1.00;;;;;;6150355;23;20834;-70
2021/06/18 09:38:40;;;;;;;12.53;11.43;;;31.00;23.50;;;;;;6136115;23;20756;-70
2021/06/18 09:41:09;;;;;;;15.30;11.47;;;30.70;99.90;;;;;;6136218;23;20477;-68
2021/06/18 09:43:44;;;;;;;14.40;11.60;;;30.60;99.90;;;;;;6136449;23;20430;-68
2021/06/18 09:46:10;;;;;;;13.37;11.97;;;30.80;99.90;;;;;;6136838;23;20445;-68
2021/06/18 09:48:36;;;;;;;11.77;10.87;;;31.10;8.20;;;;;;6138208;23;20386;-73
2021/06/18 09:51:02;;;;;;;13.13;11.63;;;31.50;21.90;;;;;;6151941;23;20162;-72
2021/06/18 09:53:28;;;;;;;15.83;11.87;;;31.40;1.00;;;;;;6138344;23;20151;-72
2021/06/18 09:56:13;;;;;;;12.20;11.10;;;31.40;3.70;;;;;;6138273;23;20426;-72
2021/06/18 09:58:42;;;;;;;13.97;12.37;;;31.50;1.00;;;;;;6151469;23;20824;-72
2021/06/18 10:01:27;;;;;;;13.23;11.73;;;31.90;1.00;;;;;;6151727;23;20780;-74
2021/06/18 10:04:04;;;;;;;13.70;12.33;;;31.80;1.00;;;;;;6151874;23;20394;-73
2021/06/18 10:06:32;;;;;;;13.43;12.13;;;31.20;16.40;;;;;;6138318;23;20386;-70
2021/06/18 10:09:00;;;;;;;14.80;13.17;;;31.10;82.50;;;;;;6138119;23;20389;-72
2021/06/18 10:11:27;;;;;;;14.73;13.37;;;31.00;11.60;;;;;;6151568;23;20685;-73
2021/06/18 10:13:54;;;;;;;12.00;10.90;;;30.80;43.70;;;;;;6138121;23;20830;-71
2021/06/18 10:16:22;;;;;;;13.03;11.80;;;31.20;9.10;;;;;;6151430;23;20853;-72
2021/06/18 10:18:48;;;;;;;12.30;11.00;;;31.50;1.00;;;;;;6137663;23;20406;-73
2021/06/18 10:21:17;;;;;;;14.17;12.67;;;31.70;1.00;;;;;;6151691;23;20489;-73
2021/06/18 10:23:45;;;;;;;13.90;12.50;;;31.70;1.00;;;;;;6151418;23;20501;-70
2021/06/18 10:26:13;;;;;;;13.57;10.43;;;31.90;1.00;;;;;;6150671;23;20481;-71
2021/06/18 10:28:39;;;;;;;13.03;11.70;;;32.10;1.00;;;;;;6134396;23;20857;-70
2021/06/18 10:31:06;;;;;;;11.77;10.67;;;32.00;1.00;;;;;;6136410;23;20386;-70
2021/06/18 10:33:34;;;;;;;12.30;11.20;;;32.50;1.00;;;;;;6138004;23;20383;-71
2021/06/18 10:36:24;;;;;;;13.07;11.77;;;32.60;1.00;;;;;;6137866;23;20383;-71
2021/06/18 10:39:13;;;;;;;14.43;12.57;;;32.10;1.00;;;;;;6137919;23;20382;-70
2021/06/18 10:41:46;;;;;;;12.73;11.73;;;31.80;1.00;;;;;;6137808;23;20729;-70
2021/06/18 10:44:12;;;;;;;13.87;12.70;;;31.90;22.30;;;;;;6138423;23;20387;-70
2021/06/18 10:46:38;;;;;;;15.43;14.00;;;31.50;99.90;;;;;;6151974;23;20394;-69
2021/06/18 10:49:11;;;;;;;14.97;13.77;;;31.20;99.90;;;;;;6126870;23;20413;-69
2021/06/18 10:51:48;;;;;;;14.83;13.43;;;31.20;99.90;;;;;;6127052;23;20391;-70
2021/06/18 10:54:47;;;;;;;15.00;13.63;;;31.40;99.90;;;;;;6137947;23;20673;-71
2021/06/18 10:57:31;;;;;;;15.97;14.77;;;31.30;99.90;;;;;;6137130;23;20673;-70
2021/06/18 11:00:20;;;;;;;18.27;16.77;;;31.20;1.00;;;;;;6137300;23;20638;-70
2021/06/18 11:02:47;;;;;;;17.27;15.87;;;30.90;1.00;;;;;;6127693;23;20473;-69
2021/06/18 11:05:25;;;;;;;16.50;15.10;;;30.80;1.00;;;;;;6137935;23;20394;-70
2021/06/18 11:07:50;;;;;;;17.83;16.07;;;31.20;1.00;;;;;;6128543;23;20370;-70
2021/06/18 11:10:38;;;;;;;16.50;15.23;;;31.20;1.00;;;;;;6128123;23;20892;-70
2021/06/18 11:13:07;;;;;;;16.53;15.20;;;31.20;99.90;;;;;;6137917;23;20375;-70
2021/06/18 11:15:32;;;;;;;14.53;13.33;;;31.20;99.90;;;;;;6126785;23;20684;-70
2021/06/18 11:18:17;;;;;;;15.07;13.77;;;31.40;99.90;;;;;;6137458;23;20453;-70
2021/06/18 11:20:43;;;;;;;16.07;14.73;;;31.40;99.90;;;;;;6137794;23;20593;-70
2021/06/18 11:23:23;;;;;;;16.87;15.47;;;32.00;99.90;;;;;;6127899;23;20422;-70
2021/06/18 11:25:51;;;;;;;16.20;14.57;;;32.00;1.00;;;;;;6127764;23;20483;-71
2021/06/18 11:28:23;;;;;;;15.07;13.90;;;32.30;1.00;;;;;;6137340;23;20383;-71
2021/06/18 11:31:32;;;;;;;14.97;13.43;;;32.70;1.00;;;;;;6126658;23;20845;-71
2021/06/18 11:33:59;;;;;;;15.30;13.70;;;33.10;1.00;;;;;;6127087;23;20912;-69
2021/06/18 11:36:26;;;;;;;15.77;14.40;;;32.30;1.00;;;;;;6127846;23;20391;-71
2021/06/18 11:39:00;;;;;;;14.30;13.20;;;32.00;1.00;;;;;;6127866;23;20397;-70
2021/06/18 11:41:32;;;;;;;15.60;14.37;;;32.60;1.00;;;;;;6128013;23;20397;-70
2021/06/18 11:44:00;;;;;;;14.70;13.20;;;32.20;1.00;;;;;;6137234;23;20438;-70
2021/06/18 11:46:28;;;;;;;15.30;13.90;;;32.60;1.00;;;;;;6102155;23;20427;-71
2021/06/18 11:48:57;;;;;;;14.23;12.90;;;32.20;1.00;;;;;;6137275;23;20443;-71
2021/06/18 11:51:26;;;;;;;15.60;14.37;;;32.20;1.00;;;;;;6127911;23;20401;-71
2021/06/18 11:53:52;;;;;;;14.40;13.00;;;32.40;1.00;;;;;;6137395;23;20834;-71
2021/06/18 11:56:18;;;;;;;13.93;12.83;;;32.70;1.00;;;;;;6137419;23;20390;-71
2021/06/18 11:58:46;;;;;;;14.20;12.90;;;33.30;1.00;;;;;;6150527;23;20886;-69
2021/06/18 12:01:31;;;;;;;14.60;13.23;;;33.30;1.00;;;;;;6150943;23;20398;-70
2021/06/18 12:03:59;;;;;;;14.67;13.57;;;33.40;1.00;;;;;;6151315;23;20394;-70
2021/06/18 12:06:24;;;;;;;14.77;13.30;;;33.20;1.00;;;;;;6137167;23;20841;-71
2021/06/18 12:09:13;;;;;;;14.10;12.70;;;32.40;1.00;;;;;;6136946;23;20379;-71
2021/06/18 12:11:43;;;;;;;14.53;13.23;;;32.60;1.00;;;;;;6127619;23;20210;-71
2021/06/18 12:14:11;;;;;;;16.80;15.30;;;33.00;1.00;;;;;;6137371;23;20379;-70
2021/06/18 12:16:39;;;;;;;15.63;14.33;;;32.40;1.00;;;;;;6137040;23;20466;-71
2021/06/18 12:19:28;;;;;;;14.10;12.90;;;33.10;1.00;;;;;;6136594;23;20401;-71
2021/06/18 12:21:57;;;;;;;13.87;12.57;;;34.10;1.00;;;;;;6136953;23;20411;-71
2021/06/18 12:24:28;;;;;;;15.40;14.10;;;34.50;1.00;;;;;;6136704;23;20500;-71
2021/06/18 12:26:55;;;;;;;15.40;13.63;;;34.20;1.00;;;;;;6127565;23;20381;-71
2021/06/18 12:29:21;;;;;;;14.40;13.20;;;33.90;1.00;;;;;;6137007;23;20387;-71
2021/06/18 12:31:47;;;;;;;13.77;12.80;;;33.70;1.00;;;;;;6136952;23;20401;-71
2021/06/18 12:34:14;;;;;;;13.90;12.90;;;33.80;1.00;;;;;;6136884;23;20402;-71
2021/06/18 12:36:40;;;;;;;14.87;13.77;;;34.10;1.00;;;;;;6127210;23;20221;-71
2021/06/18 12:39:11;;;;;;;14.17;12.77;;;33.80;1.00;;;;;;6136692;23;20497;-71
2021/06/18 12:41:37;;;;;;;14.70;13.50;;;34.20;1.00;;;;;;6101974;23;20492;-72
2021/06/18 12:44:05;;;;;;;13.90;12.70;;;34.20;1.00;;;;;;6127658;23;20706;-71
2021/06/18 12:46:31;;;;;;;13.67;12.57;;;33.80;1.00;;;;;;6127280;23;20162;-71